Time;durP1;ratioP1;P1;durP2;ratioP2;P2;SDS_P1;SDS_P2;PMS_P1;PMS_P2;Temp;Humidity;BMP_temperature;BMP_pressure;BME280_temperature;BME280_humidity;BME280_pressure;Samples;Min_cycle;Max_cycle;Signal;HPM_P1;HPM_P2
2023/10/11 00:00:39;;;;;;;1.50;1.15;;;;;;;11.39;100.00;95301.31;5038682;28;20680;-76
2023/10/11 00:03:15;;;;;;;1.08;0.85;;;;;;;11.34;100.00;95296.03;5034183;28;20209;-76
2023/10/11 00:05:42;;;;;;;0.20;0.20;;;;;;;11.40;100.00;95291.28;5029745;28;20208;-76
2023/10/11 00:08:10;;;;;;;0.35;0.35;;;;;;;11.40;100.00;95289.34;5038078;28;20224;-76
2023/10/11 00:10:44;;;;;;;0.75;0.65;;;;;;;11.37;100.00;95289.97;5035944;28;20204;-76
2023/10/11 00:13:15;;;;;;;0.43;0.43;;;;;;;11.29;100.00;95287.25;5030271;28;20230;-76
2023/10/11 00:15:42;;;;;;;0.57;0.57;;;;;;;11.26;100.00;95287.88;5038512;28;20266;-77
2023/10/11 00:18:10;;;;;;;0.20;0.20;;;;;;;11.17;100.00;95279.75;5029291;28;20204;-74
2023/10/11 00:20:50;;;;;;;0.20;0.20;;;;;;;11.17;100.00;95284.38;5030615;28;20538;-76
2023/10/11 00:23:18;;;;;;;0.20;0.20;;;;;;;11.11;100.00;95278.28;5047455;28;20205;-76
2023/10/11 00:25:45;;;;;;;0.80;0.80;;;;;;;11.06;100.00;95288.47;5042503;28;20208;-76
2023/10/11 00:28:14;;;;;;;0.77;0.77;;;;;;;10.99;100.00;95288.91;5037134;28;20260;-76
2023/10/11 00:30:46;;;;;;;2.22;1.77;;;;;;;10.94;100.00;95294.47;5035558;28;20209;-74
2023/10/11 00:33:13;;;;;;;0.25;0.25;;;;;;;10.95;100.00;95287.94;5047747;28;20209;-74
2023/10/11 00:35:47;;;;;;;0.30;0.30;;;;;;;10.99;100.00;95289.72;5038120;28;20211;-74
2023/10/11 00:38:18;;;;;;;0.60;0.60;;;;;;;10.96;100.00;95284.13;5034693;28;20204;-74
2023/10/11 00:40:46;;;;;;;1.05;1.02;;;;;;;10.87;100.00;95284.09;5034499;28;20275;-74
2023/10/11 00:43:19;;;;;;;0.50;0.50;;;;;;;10.87;100.00;95294.13;5038688;28;20204;-74
2023/10/11 00:45:46;;;;;;;0.77;0.77;;;;;;;10.84;100.00;95292.06;5035134;28;20212;-73
2023/10/11 00:48:19;;;;;;;0.50;0.50;;;;;;;10.79;100.00;95286.78;5044806;28;20238;-73
2023/10/11 00:50:49;;;;;;;3.17;1.70;;;;;;;10.90;100.00;95296.22;5044488;28;20287;-73
2023/10/11 00:53:18;;;;;;;2.20;1.70;;;;;;;10.82;100.00;95294.25;5038850;28;20571;-73
2023/10/11 00:55:45;;;;;;;2.67;2.05;;;;;;;10.75;100.00;95293.94;5043081;28;20204;-73
2023/10/11 00:58:15;;;;;;;1.80;1.52;;;;;;;10.66;100.00;95289.25;5044567;28;20212;-74
2023/10/11 01:00:43;;;;;;;2.40;1.52;;;;;;;10.68;100.00;95291.66;5039256;28;20215;-74
2023/10/11 01:03:10;;;;;;;3.03;1.65;;;;;;;10.67;100.00;95290.84;5032734;28;20215;-73
2023/10/11 01:05:43;;;;;;;2.97;2.00;;;;;;;10.77;100.00;95302.56;5022578;28;20208;-73
2023/10/11 01:08:12;;;;;;;0.25;0.25;;;;;;;10.87;100.00;95307.69;5040022;28;20303;-73
2023/10/11 01:10:39;;;;;;;0.90;0.30;;;;;;;10.87;100.00;95292.22;5038863;28;20258;-73
2023/10/11 01:13:06;;;;;;;0.35;0.35;;;;;;;10.78;100.00;95298.72;5037582;28;20204;-74
2023/10/11 01:15:33;;;;;;;2.53;1.80;;;;;;;10.68;100.00;95294.38;5047888;28;20587;-74
2023/10/11 01:18:01;;;;;;;1.40;1.30;;;;;;;10.60;100.00;95298.63;5037900;28;20200;-73
2023/10/11 01:20:31;;;;;;;5.90;2.17;;;;;;;10.56;100.00;95303.06;5030982;28;20626;-74
2023/10/11 01:22:59;;;;;;;3.58;1.70;;;;;;;10.74;100.00;95298.56;5048453;28;20698;-74
2023/10/11 01:25:26;;;;;;;0.30;0.30;;;;;;;10.87;100.00;95302.28;5043295;28;20291;-74
2023/10/11 01:27:53;;;;;;;0.75;0.75;;;;;;;11.01;100.00;95309.19;5035362;28;20992;-74
2023/10/11 01:30:20;;;;;;;0.30;0.30;;;;;;;11.01;100.00;95308.38;5032649;28;20215;-74
2023/10/11 01:32:48;;;;;;;0.30;0.30;;;;;;;11.09;100.00;95312.22;5045128;28;20211;-73
2023/10/11 01:35:20;;;;;;;0.55;0.55;;;;;;;11.10;100.00;95313.84;5040643;28;20563;-73
2023/10/11 01:37:48;;;;;;;1.75;1.65;;;;;;;11.08;100.00;95318.78;5033489;28;20205;-74
2023/10/11 01:40:21;;;;;;;1.52;1.42;;;;;;;11.18;100.00;95324.72;5043449;28;20240;-74
2023/10/11 01:42:50;;;;;;;0.35;0.35;;;;;;;11.22;100.00;95309.41;5040155;28;20200;-73
2023/10/11 01:45:18;;;;;;;0.30;0.30;;;;;;;11.16;100.00;95324.25;5034798;28;20234;-73
2023/10/11 01:47:47;;;;;;;0.20;0.20;;;;;;;11.18;100.00;95330.16;5042125;28;20254;-73
2023/10/11 01:50:16;;;;;;;0.52;0.52;;;;;;;11.09;100.00;95339.34;5033009;28;20204;-73
2023/10/11 01:52:43;;;;;;;0.30;0.30;;;;;;;11.13;100.00;95326.78;5040084;28;20262;-73
2023/10/11 01:55:13;;;;;;;1.55;1.02;;;;;;;11.13;100.00;95333.00;5033765;28;20723;-73
2023/10/11 01:57:41;;;;;;;2.45;1.30;;;;;;;11.17;100.00;95333.19;5041582;28;20223;-73
2023/10/11 02:00:13;;;;;;;1.70;1.33;;;;;;;11.18;100.00;95329.34;5039324;28;20204;-74
2023/10/11 02:02:45;;;;;;;2.08;1.63;;;;;;;11.30;100.00;95327.63;5034510;28;20827;-73
2023/10/11 02:05:17;;;;;;;0.40;0.40;;;;;;;11.32;100.00;95336.25;5040454;28;20663;-75
2023/10/11 02:07:44;;;;;;;0.35;0.35;;;;;;;11.20;100.00;95333.34;5031065;28;20616;-73
2023/10/11 02:10:13;;;;;;;0.20;0.20;;;;;;;11.21;100.00;95329.50;5038314;28;20217;-73
2023/10/11 02:12:45;;;;;;;0.32;0.32;;;;;;;11.13;100.00;95327.56;5017068;28;20216;-73
2023/10/11 02:15:21;;;;;;;0.30;0.30;;;;;;;11.14;100.00;95329.16;5039234;28;20254;-74
2023/10/11 02:17:51;;;;;;;0.20;0.20;;;;;;;11.08;100.00;95329.63;5034163;28;20244;-74
2023/10/11 02:20:22;;;;;;;0.20;0.20;;;;;;;10.97;100.00;95334.53;5038956;28;20203;-73
2023/10/11 02:22:51;;;;;;;0.40;0.40;;;;;;;11.00;100.00;95333.91;5031382;28;20555;-73
2023/10/11 02:25:19;;;;;;;0.50;0.50;;;;;;;10.91;100.00;95335.78;5030236;28;20563;-73
2023/10/11 02:27:49;;;;;;;0.30;0.30;;;;;;;10.87;100.00;95334.78;5029812;28;20232;-75
2023/10/11 02:30:21;;;;;;;0.22;0.22;;;;;;;10.95;100.00;95331.31;5032865;28;20283;-73
2023/10/11 02:32:48;;;;;;;0.15;0.15;;;;;;;11.03;100.00;95338.69;5034301;28;20193;-75
2023/10/11 02:35:17;;;;;;;0.22;0.22;;;;;;;11.05;100.00;95341.91;5032700;28;20208;-75
2023/10/11 02:37:46;;;;;;;0.20;0.20;;;;;;;11.03;100.00;95336.00;5030169;28;20200;-75
2023/10/11 02:40:16;;;;;;;0.65;0.65;;;;;;;11.05;100.00;95341.91;5030284;28;20290;-75
2023/10/11 02:42:45;;;;;;;0.85;0.85;;;;;;;11.08;100.00;95345.88;5032558;28;20204;-75
2023/10/11 02:45:14;;;;;;;0.20;0.20;;;;;;;11.11;100.00;95345.25;5027860;28;20200;-72
2023/10/11 02:47:41;;;;;;;0.43;0.38;;;;;;;11.19;100.00;95348.03;5029499;28;21046;-75
2023/10/11 02:50:09;;;;;;;0.40;0.40;;;;;;;11.28;100.00;95350.75;5034119;28;20549;-74
2023/10/11 02:52:39;;;;;;;0.20;0.20;;;;;;;11.26;100.00;95359.19;5032733;28;20664;-75
2023/10/11 02:55:16;;;;;;;0.20;0.20;;;;;;;11.23;100.00;95354.41;5030875;28;20295;-75
2023/10/11 02:57:44;;;;;;;0.30;0.30;;;;;;;11.30;100.00;95349.34;5028546;28;20196;-76
2023/10/11 03:00:22;;;;;;;0.65;0.65;;;;;;;11.31;100.00;95361.78;5032981;28;20593;-75
2023/10/11 03:02:55;;;;;;;0.30;0.30;;;;;;;11.28;100.00;95356.97;5029880;28;20653;-75
2023/10/11 03:05:27;;;;;;;0.20;0.20;;;;;;;11.19;100.00;95361.59;5032694;28;20259;-74
2023/10/11 03:08:13;;;;;;;2.25;1.42;;;;;;;11.05;100.00;95358.16;5028137;28;20297;-74
2023/10/11 03:10:43;;;;;;;2.05;1.35;;;;;;;10.98;100.00;95358.59;5033795;28;20210;-75
2023/10/11 03:13:11;;;;;;;2.60;1.77;;;;;;;10.97;100.00;95372.47;5043073;28;20204;-75
2023/10/11 03:15:40;;;;;;;1.73;1.35;;;;;;;10.82;100.00;95376.38;5040343;28;20597;-76
2023/10/11 03:18:07;;;;;;;2.22;1.75;;;;;;;10.87;100.00;95383.59;5031328;28;20208;-75
2023/10/11 03:20:36;;;;;;;3.28;1.48;;;;;;;10.67;100.00;95380.28;5041486;28;20222;-75
2023/10/11 03:23:10;;;;;;;1.90;1.45;;;;;;;10.50;100.00;95382.88;5039342;28;20208;-75
2023/10/11 03:25:44;;;;;;;2.55;1.35;;;;;;;10.61;100.00;95389.66;5033592;28;20608;-76
2023/10/11 03:28:15;;;;;;;2.13;1.58;;;;;;;10.65;100.00;95387.94;5040199;28;20727;-75
2023/10/11 03:30:43;;;;;;;1.90;1.30;;;;;;;10.67;100.00;95385.69;5041204;28;20290;-74
2023/10/11 03:33:11;;;;;;;4.80;1.60;;;;;;;10.53;100.00;95390.38;5031352;28;20355;-76
2023/10/11 03:35:38;;;;;;;3.33;2.65;;;;;;;10.58;100.00;95390.25;5028480;28;20204;-76
2023/10/11 03:38:16;;;;;;;0.73;0.73;;;;;;;10.62;100.00;95393.97;5034212;28;20211;-75
2023/10/11 03:40:55;;;;;;;0.30;0.30;;;;;;;10.59;100.00;95389.16;5032711;28;20326;-75
2023/10/11 03:43:21;;;;;;;0.38;0.38;;;;;;;10.64;100.00;95396.38;5031243;28;20204;-75
2023/10/11 03:45:50;;;;;;;0.60;0.60;;;;;;;10.72;100.00;95397.53;5030861;28;20201;-75
2023/10/11 03:48:18;;;;;;;0.60;0.30;;;;;;;10.71;100.00;95401.34;5031951;28;20283;-76
2023/10/11 03:50:48;;;;;;;0.40;0.40;;;;;;;10.82;100.00;95399.97;5031897;28;20262;-76
2023/10/11 03:53:16;;;;;;;0.47;0.47;;;;;;;11.02;100.00;95402.16;5028938;28;20200;-75
2023/10/11 03:55:49;;;;;;;0.30;0.30;;;;;;;11.13;100.00;95414.34;5028417;28;20612;-76
2023/10/11 03:58:32;;;;;;;0.20;0.20;;;;;;;11.24;100.00;95404.81;5033209;28;20207;-74
2023/10/11 04:01:10;;;;;;;0.82;0.60;;;;;;;11.29;100.00;95401.97;5035159;28;20211;-74
2023/10/11 04:03:39;;;;;;;0.77;0.77;;;;;;;11.27;100.00;95406.13;5022792;28;20206;-74
2023/10/11 04:06:13;;;;;;;1.30;0.80;;;;;;;11.33;100.00;95407.59;5029164;28;20813;-75
2023/10/11 04:08:48;;;;;;;0.60;0.60;;;;;;;11.20;100.00;95408.50;5037987;28;20319;-73
2023/10/11 04:11:18;;;;;;;0.55;0.52;;;;;;;11.04;100.00;95414.31;5035841;28;20731;-74
2023/10/11 04:13:48;;;;;;;1.23;1.13;;;;;;;11.11;100.00;95421.19;5034921;28;20204;-73
2023/10/11 04:16:17;;;;;;;0.40;0.40;;;;;;;11.04;100.00;95419.72;5029243;28;20204;-74
2023/10/11 04:18:45;;;;;;;0.70;0.60;;;;;;;11.05;100.00;95423.25;5032378;28;20199;-74
2023/10/11 04:23:58;;;;;;;0.90;0.90;;;;;;;11.28;100.00;95422.06;4989826;28;20209;-74
2023/10/11 04:26:33;;;;;;;0.40;0.40;;;;;;;11.38;100.00;95438.06;5027523;28;20212;-77
2023/10/11 04:29:06;;;;;;;0.28;0.28;;;;;;;11.46;100.00;95439.25;5027900;28;20698;-76
2023/10/11 04:31:54;;;;;;;0.75;0.75;;;;;;;11.55;100.00;95439.25;5033116;28;20208;-76
2023/10/11 04:34:23;;;;;;;0.25;0.25;;;;;;;11.53;100.00;95430.63;5020481;28;20240;-76
2023/10/11 04:36:55;;;;;;;0.38;0.38;;;;;;;11.58;100.00;95430.50;5032116;28;20205;-75
2023/10/11 04:39:28;;;;;;;0.98;0.95;;;;;;;11.63;100.00;95427.63;5032391;28;20660;-75
2023/10/11 04:41:57;;;;;;;0.30;0.30;;;;;;;11.70;100.00;95441.56;5018120;28;20294;-75
2023/10/11 04:44:30;;;;;;;0.32;0.32;;;;;;;11.80;100.00;95438.56;5032995;28;20580;-74
2023/10/11 04:47:00;;;;;;;0.20;0.20;;;;;;;11.81;100.00;95434.75;5028910;28;20209;-75
2023/10/11 04:49:30;;;;;;;0.65;0.65;;;;;;;11.85;100.00;95437.66;5032332;28;20232;-75
2023/10/11 04:51:57;;;;;;;0.20;0.20;;;;;;;11.89;100.00;95447.53;5029489;28;20707;-76
2023/10/11 04:54:35;;;;;;;0.10;0.10;;;;;;;12.09;100.00;95446.97;5031353;28;20204;-78
2023/10/11 04:57:08;;;;;;;0.38;0.38;;;;;;;12.21;100.00;95440.09;5020855;28;20204;-76
2023/10/11 04:59:37;;;;;;;0.20;0.20;;;;;;;12.45;100.00;95448.59;5031607;28;20256;-77
2023/10/11 05:02:16;;;;;;;0.20;0.20;;;;;;;12.52;100.00;95448.13;5032792;28;20560;-77
2023/10/11 05:04:44;;;;;;;0.40;0.40;;;;;;;12.90;100.00;95448.25;5032491;28;20269;-77
2023/10/11 05:07:12;;;;;;;0.60;0.43;;;;;;;13.29;100.00;95448.06;5032646;28;20212;-76
2023/10/11 05:09:39;;;;;;;0.63;0.63;;;;;;;13.32;100.00;95455.59;5029795;28;20224;-76
2023/10/11 05:12:12;;;;;;;0.20;0.20;;;;;;;13.12;100.00;95456.22;5032526;28;20244;-77
2023/10/11 05:14:54;;;;;;;0.30;0.30;;;;;;;12.89;100.00;95457.53;5032642;28;20279;-77
2023/10/11 05:22:52;;;;;;;0.50;0.50;;;;;;;12.96;100.00;95466.03;5023125;28;20592;-76
2023/10/11 05:28:26;;;;;;;0.22;0.22;;;;;;;13.30;100.00;95462.47;5019974;28;20688;-77
2023/10/11 05:31:18;;;;;;;0.30;0.30;;;;;;;13.35;100.00;95471.28;5032453;28;20207;-78
2023/10/11 05:33:59;;;;;;;0.10;0.10;;;;;;;13.41;100.00;95464.50;5032130;28;20227;-78
2023/10/11 05:36:48;;;;;;;0.45;0.45;;;;;;;13.38;100.00;95465.19;5032063;28;20214;-77
2023/10/11 05:52:56;;;;;;;0.35;0.35;;;;;;;14.22;100.00;95461.56;5030913;28;20814;-75
2023/10/11 05:55:23;;;;;;;0.30;0.30;;;;;;;14.29;100.00;95460.28;5030458;28;20302;-72
2023/10/11 05:57:50;;;;;;;0.28;0.28;;;;;;;14.31;100.00;95463.47;5030243;28;20266;-73
2023/10/11 06:00:31;;;;;;;0.30;0.30;;;;;;;14.11;98.75;95465.81;5030951;28;20619;-72
2023/10/11 06:02:59;;;;;;;0.25;0.25;;;;;;;13.83;97.43;95470.94;5030198;28;20266;-74
2023/10/11 06:05:27;;;;;;;1.38;1.25;;;;;;;13.84;97.60;95480.69;5030463;28;20812;-72
2023/10/11 06:08:03;;;;;;;0.25;0.25;;;;;;;13.92;97.19;95479.06;5030085;28;20295;-73
2023/10/11 06:10:41;;;;;;;0.38;0.38;;;;;;;14.34;94.09;95479.19;5030410;28;20216;-74
2023/10/11 06:13:13;;;;;;;0.40;0.40;;;;;;;14.83;91.49;95486.53;5030766;28;20281;-73
2023/10/11 06:15:58;;;;;;;0.10;0.10;;;;;;;15.46;88.70;95492.69;5030371;28;20204;-73
2023/10/11 06:18:55;;;;;;;0.52;0.52;;;;;;;16.22;85.24;95486.69;5030489;28;20204;-73
2023/10/11 06:21:34;;;;;;;0.20;0.20;;;;;;;17.04;82.85;95495.47;5030347;28;20717;-73
2023/10/11 06:24:03;;;;;;;0.60;0.60;;;;;;;16.93;82.84;95499.84;5030505;28;20211;-72
2023/10/11 06:26:52;;;;;;;0.45;0.40;;;;;;;16.65;82.30;95502.53;5030618;28;20205;-73
2023/10/11 06:29:18;;;;;;;0.60;0.60;;;;;;;16.34;84.25;95500.34;5030809;28;20228;-72
2023/10/11 06:31:44;;;;;;;0.20;0.20;;;;;;;17.04;81.03;95498.22;5031224;28;20212;-74
2023/10/11 06:34:22;;;;;;;1.17;1.00;;;;;;;18.25;62.47;95498.72;5031757;28;20219;-73
2023/10/11 06:36:51;;;;;;;0.77;0.77;;;;;;;18.91;59.71;95499.84;5030625;28;20200;-74
2023/10/11 06:42:06;;;;;;;1.58;1.02;;;;;;;19.20;58.20;95509.50;5028361;28;20208;-73
2023/10/11 06:44:34;;;;;;;2.08;1.10;;;;;;;18.59;58.18;95508.16;5013938;28;20211;-74
2023/10/11 06:47:03;;;;;;;0.20;0.20;;;;;;;18.05;61.11;95516.22;5031037;28;20302;-74
2023/10/11 06:49:40;;;;;;;0.43;0.43;;;;;;;18.01;61.38;95520.81;5031089;28;20227;-74
2023/10/11 06:52:11;;;;;;;0.40;0.40;;;;;;;17.38;62.93;95526.94;5030794;28;20212;-73
2023/10/11 06:54:38;;;;;;;0.20;0.20;;;;;;;17.38;62.75;95526.94;5031084;28;20212;-74
2023/10/11 06:57:07;;;;;;;0.30;0.30;;;;;;;16.80;64.20;95533.06;5031164;28;20305;-73
2023/10/11 06:59:34;;;;;;;0.20;0.20;;;;;;;16.23;66.16;95532.03;5030706;28;20239;-73
2023/10/11 07:02:00;;;;;;;0.10;0.10;;;;;;;15.72;68.16;95538.06;5030747;28;20333;-72
2023/10/11 07:04:36;;;;;;;0.95;0.88;;;;;;;15.67;68.39;95541.03;5030836;28;20208;-73
2023/10/11 07:07:07;;;;;;;0.20;0.20;;;;;;;15.51;69.57;95536.19;5030681;28;20211;-73
2023/10/11 07:09:39;;;;;;;0.15;0.15;;;;;;;15.40;70.15;95535.00;5030965;28;20277;-74
2023/10/11 07:14:49;;;;;;;0.22;0.22;;;;;;;15.99;68.65;95515.59;5028170;28;20223;-73
2023/10/11 07:17:20;;;;;;;0.73;0.38;;;;;;;16.05;67.68;95519.72;5030553;28;20226;-75
2023/10/11 07:19:50;;;;;;;0.60;0.60;;;;;;;15.67;68.81;95514.53;5030406;28;20208;-74
2023/10/11 07:22:18;;;;;;;0.52;0.52;;;;;;;15.92;68.54;95504.44;5030762;28;20216;-74
2023/10/11 07:24:55;;;;;;;0.30;0.22;;;;;;;16.10;68.10;95500.38;5030471;28;20606;-75
2023/10/11 07:27:26;;;;;;;0.38;0.38;;;;;;;15.95;67.09;95498.28;5030866;28;20219;-75
2023/10/11 07:29:54;;;;;;;0.30;0.30;;;;;;;15.68;68.48;95504.41;5030294;28;20557;-75
2023/10/11 07:32:21;;;;;;;0.35;0.35;;;;;;;15.70;69.04;95497.47;5030120;28;20209;-74
2023/10/11 07:34:48;;;;;;;0.73;0.73;;;;;;;16.16;67.80;95489.97;5030211;28;20631;-75
2023/10/11 07:37:18;;;;;;;0.65;0.65;;;;;;;15.84;68.48;95491.69;5030182;28;20234;-76
2023/10/11 07:39:47;;;;;;;0.30;0.30;;;;;;;15.94;67.45;95488.50;5029803;28;20250;-73
2023/10/11 07:42:19;;;;;;;0.38;0.38;;;;;;;16.25;67.28;95491.47;5030122;28;20218;-73
2023/10/11 07:44:50;;;;;;;0.22;0.22;;;;;;;16.19;66.69;95492.84;5029932;28;20227;-73
2023/10/11 07:47:18;;;;;;;0.20;0.20;;;;;;;15.96;67.25;95511.63;5030093;28;20222;-73
2023/10/11 07:49:45;;;;;;;0.82;0.73;;;;;;;16.25;67.39;95513.34;5030041;28;20575;-73
2023/10/11 07:52:19;;;;;;;0.10;0.10;;;;;;;16.51;66.56;95498.53;5030280;28;20641;-74
2023/10/11 07:54:45;;;;;;;0.95;0.40;;;;;;;16.54;65.75;95508.75;5030015;28;20216;-74
2023/10/11 07:57:14;;;;;;;0.90;0.40;;;;;;;16.61;65.53;95509.00;5030487;28;20599;-72
2023/10/11 07:59:43;;;;;;;3.08;1.10;;;;;;;16.40;65.68;95516.53;5029942;28;20258;-73
2023/10/11 08:02:26;;;;;;;0.93;0.88;;;;;;;16.46;66.03;95513.22;5030546;28;20212;-75
2023/10/11 08:04:53;;;;;;;0.60;0.60;;;;;;;16.70;65.40;95517.88;5029943;28;20208;-72
2023/10/11 08:07:22;;;;;;;0.80;0.52;;;;;;;16.70;64.36;95506.94;5029921;28;20212;-74
2023/10/11 08:09:52;;;;;;;1.58;1.20;;;;;;;16.84;64.00;95507.38;5029710;28;20228;-73
2023/10/11 08:12:22;;;;;;;0.30;0.30;;;;;;;16.44;64.55;95512.75;5030053;28;20212;-74
2023/10/11 08:14:53;;;;;;;1.48;1.08;;;;;;;16.45;65.09;95522.56;5029690;28;20211;-73
2023/10/11 08:17:21;;;;;;;1.00;0.90;;;;;;;16.56;64.75;95522.91;5029670;28;20208;-72
2023/10/11 08:19:53;;;;;;;1.25;0.30;;;;;;;16.55;65.25;95524.03;5029533;28;20219;-73
2023/10/11 08:22:22;;;;;;;0.38;0.38;;;;;;;16.57;65.41;95529.97;5029658;28;20235;-73
2023/10/11 08:24:50;;;;;;;0.52;0.52;;;;;;;16.91;65.61;95537.72;5029785;28;20254;-73
2023/10/11 08:27:27;;;;;;;0.28;0.28;;;;;;;16.93;64.05;95532.69;5029490;28;20274;-72
2023/10/11 08:30:06;;;;;;;1.48;1.20;;;;;;;17.00;64.71;95527.41;5029289;28;20220;-72
2023/10/11 08:32:37;;;;;;;0.10;0.10;;;;;;;17.46;63.04;95525.22;5029536;28;20208;-73
2023/10/11 08:35:05;;;;;;;0.10;0.10;;;;;;;17.70;62.10;95533.34;5029523;28;20207;-73
2023/10/11 08:37:32;;;;;;;0.63;0.63;;;;;;;18.12;60.30;95519.16;5029667;28;20236;-73
2023/10/11 08:39:59;;;;;;;0.82;0.82;;;;;;;17.57;62.04;95517.28;5029492;28;20240;-74
2023/10/11 08:42:30;;;;;;;0.75;0.60;;;;;;;17.53;62.59;95521.84;5029584;28;20658;-73
2023/10/11 08:45:00;;;;;;;0.20;0.20;;;;;;;17.41;61.96;95525.44;5031593;28;20219;-73
2023/10/11 08:47:29;;;;;;;1.20;0.65;;;;;;;17.45;62.16;95520.06;5033395;28;20691;-73
2023/10/11 08:49:56;;;;;;;0.25;0.25;;;;;;;17.67;61.62;95514.84;5032597;28;20231;-72
2023/10/11 08:52:28;;;;;;;0.20;0.20;;;;;;;17.27;62.28;95511.34;5032902;28;20208;-72
2023/10/11 08:54:55;;;;;;;0.30;0.30;;;;;;;17.11;62.94;95505.81;5033275;28;20680;-73
2023/10/11 08:57:23;;;;;;;0.20;0.20;;;;;;;17.27;62.43;95508.63;5032633;28;20208;-73
2023/10/11 08:59:50;;;;;;;0.32;0.32;;;;;;;17.47;63.05;95513.09;5032523;28;20649;-72
2023/10/11 09:02:19;;;;;;;0.20;0.20;;;;;;;17.86;61.14;95508.69;5032693;28;20216;-74
2023/10/11 09:05:04;;;;;;;0.15;0.15;;;;;;;17.74;61.18;95517.00;5032694;28;20296;-73
2023/10/11 09:07:38;;;;;;;0.47;0.47;;;;;;;17.42;61.86;95518.81;5014778;28;20208;-72
2023/10/11 09:10:23;;;;;;;0.28;0.28;;;;;;;17.88;61.55;95505.59;5032753;28;20220;-78
2023/10/11 09:12:49;;;;;;;0.25;0.25;;;;;;;18.42;59.32;95514.00;5032983;28;20200;-77
2023/10/11 09:15:17;;;;;;;0.52;0.52;;;;;;;18.65;58.35;95512.22;5032494;28;20212;-77
2023/10/11 09:17:49;;;;;;;0.50;0.50;;;;;;;17.80;60.92;95520.25;5032218;28;20248;-77
2023/10/11 09:20:23;;;;;;;3.20;0.50;;;;;;;18.40;59.92;95517.09;5033014;28;20282;-77
2023/10/11 09:22:55;;;;;;;1.90;1.20;;;;;;;18.39;59.88;95515.50;5032098;28;20211;-77
2023/10/11 09:25:24;;;;;;;0.45;0.45;;;;;;;18.40;59.34;95514.38;5032828;28;20612;-73
2023/10/11 09:27:53;;;;;;;0.17;0.17;;;;;;;18.29;59.52;95499.59;5032462;28;20277;-73
2023/10/11 09:30:22;;;;;;;0.15;0.15;;;;;;;18.45;59.11;95508.59;5032410;28;20267;-74
2023/10/11 09:32:51;;;;;;;2.83;1.55;;;;;;;18.45;58.85;95499.56;5032008;28;20220;-74
2023/10/11 09:35:26;;;;;;;0.40;0.30;;;;;;;18.75;58.33;95499.88;5032652;28;20592;-74
2023/10/11 09:37:54;;;;;;;1.08;0.40;;;;;;;18.37;59.18;95501.34;5032013;28;20664;-75
2023/10/11 09:40:26;;;;;;;0.40;0.40;;;;;;;18.18;59.17;95497.75;5032007;28;20236;-72
2023/10/11 09:43:00;;;;;;;0.43;0.43;;;;;;;18.39;58.98;95499.06;5031973;28;20580;-74
2023/10/11 09:45:34;;;;;;;2.58;1.25;;;;;;;18.65;58.90;95500.44;5030986;28;20553;-72
2023/10/11 09:48:08;;;;;;;0.30;0.30;;;;;;;18.83;57.41;95490.66;5031834;28;20599;-74
2023/10/11 09:50:40;;;;;;;1.83;1.17;;;;;;;19.10;57.12;95486.94;5032401;28;20315;-74
2023/10/11 09:53:10;;;;;;;1.35;1.10;;;;;;;19.54;56.01;95485.88;5015233;28;20558;-74
2023/10/11 09:55:40;;;;;;;2.97;1.48;;;;;;;19.63;55.49;95481.72;5032284;28;20219;-74
2023/10/11 09:58:19;;;;;;;2.28;1.25;;;;;;;19.63;55.22;95487.22;5032139;28;20212;-73
2023/10/11 10:00:58;;;;;;;1.42;1.20;;;;;;;19.54;55.31;95489.41;5031976;28;20274;-74
2023/10/11 10:03:26;;;;;;;2.05;1.48;;;;;;;19.47;55.36;95481.78;5031557;28;20212;-74
2023/10/11 10:06:11;;;;;;;1.50;1.08;;;;;;;19.44;56.12;95481.72;5031574;28;20216;-73
2023/10/11 10:08:38;;;;;;;1.52;1.10;;;;;;;19.49;55.17;95484.22;5031917;28;20291;-77
2023/10/11 10:11:05;;;;;;;1.50;1.05;;;;;;;18.99;56.76;95469.44;5031419;28;20236;-76
2023/10/11 10:14:00;;;;;;;0.35;0.35;;;;;;;19.37;55.70;95476.09;5031421;28;20208;-76
2023/10/11 10:17:00;;;;;;;1.52;1.10;;;;;;;19.33;55.87;95469.72;5031185;28;20200;-76
2023/10/11 10:19:34;;;;;;;2.00;1.20;;;;;;;19.60;55.63;95460.47;5031259;28;20208;-76
2023/10/11 10:22:22;;;;;;;2.60;1.17;;;;;;;19.83;54.65;95453.00;5031180;28;20270;-76
2023/10/11 10:24:54;;;;;;;1.33;0.93;;;;;;;20.13;54.21;95442.13;5030861;28;20571;-76
2023/10/11 10:27:40;;;;;;;0.25;0.25;;;;;;;19.73;53.84;95445.38;5031482;28;20636;-79
2023/10/11 10:30:10;;;;;;;0.45;0.45;;;;;;;19.37;55.36;95443.13;5031201;28;20231;-76
2023/10/11 10:32:38;;;;;;;1.80;1.20;;;;;;;19.65;54.83;95437.38;5030827;28;20215;-78
2023/10/11 10:35:36;;;;;;;1.88;1.50;;;;;;;19.82;54.26;95432.16;5030668;28;20294;-74
2023/10/11 10:38:09;;;;;;;1.42;1.20;;;;;;;20.17;53.83;95433.94;5031195;28;20603;-75
2023/10/11 10:40:42;;;;;;;1.05;0.90;;;;;;;20.42;53.03;95418.63;5030916;28;20290;-74
2023/10/11 10:43:27;;;;;;;2.15;1.15;;;;;;;20.58;53.32;95419.25;5030864;28;20270;-74
2023/10/11 10:45:59;;;;;;;3.00;1.30;;;;;;;20.61;51.77;95419.69;5030698;28;20348;-75
2023/10/11 10:48:26;;;;;;;1.60;1.35;;;;;;;20.33;52.30;95411.78;5030939;28;20236;-74
2023/10/11 10:51:01;;;;;;;1.60;1.25;;;;;;;20.26;52.03;95412.44;5030624;28;20239;-74
2023/10/11 10:53:37;;;;;;;1.48;0.90;;;;;;;20.28;52.55;95412.88;5030319;28;20307;-74
2023/10/11 10:56:04;;;;;;;1.52;1.10;;;;;;;20.35;53.05;95404.75;5030943;28;20298;-75
2023/10/11 10:58:30;;;;;;;1.65;1.08;;;;;;;20.60;51.52;95404.31;5030962;28;20208;-75
2023/10/11 11:00:59;;;;;;;2.60;1.10;;;;;;;19.73;52.52;95423.38;5030786;28;20270;-75
2023/10/11 11:03:31;;;;;;;1.10;1.00;;;;;;;19.31;54.05;95417.06;5030331;28;20258;-75
2023/10/11 11:06:01;;;;;;;1.23;1.00;;;;;;;19.13;54.33;95417.53;5030702;28;20660;-77
2023/10/11 11:08:29;;;;;;;2.08;1.45;;;;;;;19.13;53.67;95417.53;5030047;28;20250;-76
2023/10/11 11:11:00;;;;;;;2.47;1.35;;;;;;;19.18;54.49;95409.00;5030081;28;20229;-76
2023/10/11 11:13:29;;;;;;;1.48;1.25;;;;;;;19.15;54.36;95409.72;5030353;28;20204;-76
2023/10/11 11:15:56;;;;;;;0.70;0.68;;;;;;;19.14;53.99;95408.13;5030286;28;20587;-77
2023/10/11 11:18:33;;;;;;;1.48;1.02;;;;;;;19.25;53.29;95413.06;5030719;28;20212;-75
2023/10/11 11:21:17;;;;;;;0.20;0.20;;;;;;;19.49;53.52;95401.75;5030185;28;20214;-77
2023/10/11 11:23:45;;;;;;;0.40;0.40;;;;;;;19.34;52.90;95416.34;5030589;28;20210;-77
2023/10/11 11:26:15;;;;;;;0.30;0.30;;;;;;;19.45;54.18;95403.59;5030750;28;20294;-76
2023/10/11 11:28:44;;;;;;;1.20;1.05;;;;;;;19.81;52.72;95402.31;5030587;28;20262;-76
2023/10/11 11:31:13;;;;;;;0.45;0.40;;;;;;;19.81;52.20;95392.13;5029988;28;20236;-75
2023/10/11 11:34:04;;;;;;;1.13;0.70;;;;;;;20.17;52.34;95387.16;5030475;28;20218;-77
2023/10/11 11:36:34;;;;;;;0.50;0.50;;;;;;;20.30;51.05;95391.28;5030144;28;20196;-76
2023/10/11 11:41:43;;;;;;;0.20;0.20;;;;;;;20.05;50.94;95387.38;5030135;28;20284;-76
2023/10/11 11:44:19;;;;;;;0.28;0.28;;;;;;;20.33;50.91;95378.75;5030150;28;20208;-75
2023/10/11 11:46:50;;;;;;;0.40;0.40;;;;;;;20.50;50.54;95373.50;5030298;28;20230;-77
2023/10/11 11:53:02;;;;;;;0.32;0.32;;;;;;;20.39;50.21;95372.56;5018560;28;20282;-76
2023/10/11 11:56:03;;;;;;;0.47;0.40;;;;;;;20.53;50.33;95377.47;5013782;28;20542;-76
2023/10/11 12:04:56;;;;;;;1.27;0.90;;;;;;;20.50;50.32;95378.25;5028506;28;20212;-78
2023/10/11 12:08:04;;;;;;;1.45;1.00;;;;;;;20.60;49.66;95383.09;4995224;28;20248;-78
2023/10/11 12:17:14;;;;;;;1.52;0.88;;;;;;;20.41;49.05;95367.50;5026312;28;20638;-78
2023/10/11 12:19:41;;;;;;;1.83;1.15;;;;;;;20.40;49.23;95357.66;5030715;28;20541;-78
2023/10/11 12:22:13;;;;;;;0.80;0.73;;;;;;;20.39;49.52;95356.06;5033193;28;20204;-76
2023/10/11 12:24:44;;;;;;;1.40;1.00;;;;;;;20.30;49.89;95363.78;5031303;28;20283;-78
2023/10/11 12:27:13;;;;;;;1.48;0.82;;;;;;;20.07;50.29;95357.53;5033269;28;20563;-78
2023/10/11 12:29:40;;;;;;;1.15;0.90;;;;;;;20.28;50.19;95354.28;5032578;28;20204;-78
2023/10/11 12:32:11;;;;;;;1.60;1.08;;;;;;;20.54;49.88;95352.34;5032331;28;20239;-78
2023/10/11 12:34:38;;;;;;;1.05;0.75;;;;;;;20.60;49.39;95354.75;5033003;28;20549;-78
2023/10/11 12:37:05;;;;;;;1.00;0.90;;;;;;;20.68;49.02;95356.44;5032788;28;20602;-77
2023/10/11 12:39:33;;;;;;;0.50;0.50;;;;;;;20.64;49.28;95353.63;5032394;28;20339;-76